Time;durP1;ratioP1;P1;durP2;ratioP2;P2;SDS_P1;SDS_P2;PMS_P1;PMS_P2;Temp;Humidity;BMP_temperature;BMP_pressure;BME280_temperature;BME280_humidity;BME280_pressure;Samples;Min_cycle;Max_cycle;Signal;HPM_P1;HPM_P2
2022/06/06 00:02:17;;;;;;;26.67;11.90;;;;;;;;;;5064838;28;20550;-66
2022/06/06 00:04:42;;;;;;;31.10;12.25;;;;;;;;;;5061133;28;20179;-66
2022/06/06 00:07:08;;;;;;;28.15;11.98;;;;;;;;;;5050160;28;20120;-66
2022/06/06 00:09:34;;;;;;;25.15;11.77;;;;;;;;;;5052806;28;20044;-66
2022/06/06 00:12:01;;;;;;;28.38;11.73;;;;;;;;;;5066809;28;20025;-66
2022/06/06 00:14:27;;;;;;;26.80;12.32;;;;;;;;;;5068824;28;20519;-66
2022/06/06 00:16:53;;;;;;;29.25;12.13;;;;;;;;;;5056309;28;20036;-66
2022/06/06 00:19:18;;;;;;;28.10;11.48;;;;;;;;;;5065450;28;20533;-66
2022/06/06 00:21:43;;;;;;;30.00;11.88;;;;;;;;;;5064399;28;20082;-66
2022/06/06 00:24:10;;;;;;;27.08;11.50;;;;;;;;;;5064803;28;20043;-66
2022/06/06 00:26:35;;;;;;;27.13;12.25;;;;;;;;;;5063687;28;20016;-66
2022/06/06 00:29:03;;;;;;;31.08;12.15;;;;;;;;;;5061543;28;20532;-65
2022/06/06 00:37:01;;;;;;;30.45;12.38;;;;;;;;;;5060895;28;20040;-66
2022/06/06 00:39:26;;;;;;;26.30;11.50;;;;;;;;;;5063415;28;20044;-66
2022/06/06 00:41:54;;;;;;;28.63;12.30;;;;;;;;;;5065221;28;20108;-66
2022/06/06 00:44:23;;;;;;;30.25;11.45;;;;;;;;;;5065364;28;20127;-66
2022/06/06 00:46:56;;;;;;;25.45;11.70;;;;;;;;;;5060911;28;20068;-66
2022/06/06 00:49:28;;;;;;;23.17;10.95;;;;;;;;;;5065315;28;20048;-66
2022/06/06 00:51:56;;;;;;;25.98;10.50;;;;;;;;;;5066846;28;20086;-66
2022/06/06 00:54:23;;;;;;;25.80;10.68;;;;;;;;;;5064753;28;20070;-66
2022/06/06 00:56:59;;;;;;;30.60;10.95;;;;;;;;;;5063495;28;20032;-66
2022/06/06 00:59:29;;;;;;;23.38;10.73;;;;;;;;;;5067148;28;20573;-66
2022/06/06 01:01:55;;;;;;;23.83;10.73;;;;;;;;;;5062271;28;20174;-66
2022/06/06 01:04:23;;;;;;;24.38;10.43;;;;;;;;;;5065803;28;20037;-67
2022/06/06 01:06:48;;;;;;;22.67;10.15;;;;;;;;;;5064724;28;20098;-66
2022/06/06 01:09:15;;;;;;;26.88;10.18;;;;;;;;;;5064910;28;20741;-66
2022/06/06 01:11:50;;;;;;;25.33;10.40;;;;;;;;;;5063097;28;20683;-66
2022/06/06 01:14:21;;;;;;;23.15;10.10;;;;;;;;;;5067518;28;20201;-66
2022/06/06 01:17:27;;;;;;;24.27;8.98;;;;;;;;;;5062128;28;20489;-66
2022/06/06 01:19:53;;;;;;;23.55;10.07;;;;;;;;;;5061388;28;20064;-67
2022/06/06 01:22:38;;;;;;;24.13;10.10;;;;;;;;;;5063116;28;20040;-66
2022/06/06 01:25:22;;;;;;;25.08;10.13;;;;;;;;;;5062812;28;20506;-67
2022/06/06 01:28:04;;;;;;;22.63;9.00;;;;;;;;;;5061174;28;20036;-66
2022/06/06 01:30:43;;;;;;;22.17;10.18;;;;;;;;;;5067542;28;20059;-67
2022/06/06 01:33:12;;;;;;;20.95;9.38;;;;;;;;;;5058576;28;20029;-66
2022/06/06 01:35:43;;;;;;;20.73;10.45;;;;;;;;;;5052432;28;20502;-66
2022/06/06 01:38:11;;;;;;;19.15;8.88;;;;;;;;;;5062025;28;20036;-66
2022/06/06 01:40:52;;;;;;;23.05;9.20;;;;;;;;;;5067212;28;20565;-66
2022/06/06 01:43:25;;;;;;;19.00;8.93;;;;;;;;;;5065786;28;20028;-67
2022/06/06 01:46:22;;;;;;;20.38;8.98;;;;;;;;;;5060735;28;20078;-66
2022/06/06 01:48:49;;;;;;;13.27;7.53;;;;;;;;;;5043046;28;20133;-67
2022/06/06 01:51:20;;;;;;;17.00;7.30;;;;;;;;;;5061057;28;20023;-66
2022/06/06 01:53:46;;;;;;;14.93;7.22;;;;;;;;;;5067168;28;20493;-67
2022/06/06 01:56:17;;;;;;;16.98;7.43;;;;;;;;;;5060573;28;20070;-66
2022/06/06 01:58:43;;;;;;;17.38;6.82;;;;;;;;;;5065559;28;20446;-67
2022/06/06 02:01:08;;;;;;;14.00;6.35;;;;;;;;;;5062122;28;20029;-66
2022/06/06 02:03:34;;;;;;;12.82;6.68;;;;;;;;;;5064975;28;20036;-66
2022/06/06 02:06:02;;;;;;;14.27;6.72;;;;;;;;;;5061032;28;20020;-66
2022/06/06 02:08:28;;;;;;;15.43;6.57;;;;;;;;;;5063837;28;20463;-66
2022/06/06 02:10:54;;;;;;;11.65;5.70;;;;;;;;;;5058891;28;20044;-66
2022/06/06 02:13:19;;;;;;;16.17;6.70;;;;;;;;;;5068164;28;20105;-66
2022/06/06 02:15:45;;;;;;;11.57;5.55;;;;;;;;;;5060306;28;20472;-66
2022/06/06 02:18:10;;;;;;;10.73;5.55;;;;;;;;;;5061196;28;20036;-66
2022/06/06 02:20:36;;;;;;;11.40;6.15;;;;;;;;;;5060515;28;20047;-66
2022/06/06 02:23:02;;;;;;;17.15;5.55;;;;;;;;;;5063009;28;20455;-66
2022/06/06 02:25:30;;;;;;;10.60;4.93;;;;;;;;;;5060770;28;20492;-66
2022/06/06 02:27:56;;;;;;;9.15;5.80;;;;;;;;;;5062861;28;20060;-66
2022/06/06 02:30:30;;;;;;;9.98;5.15;;;;;;;;;;5063775;28;20108;-66
2022/06/06 02:32:55;;;;;;;10.77;5.30;;;;;;;;;;5062623;28;20021;-66
2022/06/06 02:35:27;;;;;;;10.50;4.45;;;;;;;;;;5063714;28;20036;-66
2022/06/06 02:37:56;;;;;;;9.00;4.88;;;;;;;;;;5053534;28;20028;-66
2022/06/06 02:40:22;;;;;;;9.18;4.70;;;;;;;;;;5065407;28;20029;-66
2022/06/06 02:42:48;;;;;;;10.15;4.28;;;;;;;;;;5066127;28;20052;-66
2022/06/06 02:45:18;;;;;;;8.15;4.60;;;;;;;;;;5068241;28;20032;-66
2022/06/06 02:47:46;;;;;;;10.15;4.68;;;;;;;;;;5066224;28;20123;-66
2022/06/06 02:50:13;;;;;;;9.23;4.85;;;;;;;;;;5067858;28;20032;-66
2022/06/06 02:52:39;;;;;;;11.85;4.60;;;;;;;;;;5064267;28;20029;-66
2022/06/06 02:55:05;;;;;;;7.80;4.13;;;;;;;;;;5066831;28;20032;-66
2022/06/06 02:57:31;;;;;;;8.75;4.45;;;;;;;;;;5066019;28;20578;-66
2022/06/06 03:00:00;;;;;;;9.07;4.55;;;;;;;;;;5068425;28;20028;-67
2022/06/06 03:02:26;;;;;;;7.43;3.90;;;;;;;;;;5066630;28;20028;-66
2022/06/06 03:04:52;;;;;;;8.88;4.80;;;;;;;;;;5066460;28;20040;-66
2022/06/06 03:07:31;;;;;;;14.27;4.38;;;;;;;;;;5067678;28;20051;-66
2022/06/06 03:10:15;;;;;;;10.07;3.97;;;;;;;;;;5059257;28;20102;-66
2022/06/06 03:13:04;;;;;;;6.68;3.95;;;;;;;;;;5065123;28;20072;-66
2022/06/06 03:22:19;;;;;;;8.55;3.78;;;;;;;;;;5066753;28;20052;-66
2022/06/06 03:24:59;;;;;;;7.13;3.80;;;;;;;;;;5060677;28;20561;-66
2022/06/06 03:27:42;;;;;;;7.22;3.45;;;;;;;;;;5066421;28;20043;-66
2022/06/06 03:30:19;;;;;;;9.10;3.87;;;;;;;;;;5067911;28;20034;-66
2022/06/06 03:33:00;;;;;;;7.25;3.35;;;;;;;;;;5065592;28;20369;-66
2022/06/06 03:35:40;;;;;;;5.15;3.33;;;;;;;;;;5062497;28;20117;-66
2022/06/06 03:38:33;;;;;;;7.45;4.10;;;;;;;;;;5064077;28;20036;-66
2022/06/06 03:41:07;;;;;;;8.90;3.50;;;;;;;;;;5061359;28;20120;-66
2022/06/06 03:43:53;;;;;;;6.90;3.78;;;;;;;;;;5060569;28;20044;-66
2022/06/06 03:46:27;;;;;;;8.90;4.22;;;;;;;;;;5064659;28;20067;-66
2022/06/06 03:49:05;;;;;;;8.13;4.85;;;;;;;;;;5068612;28;20037;-66
2022/06/06 03:52:02;;;;;;;7.70;3.80;;;;;;;;;;5067326;28;20102;-66
2022/06/06 03:54:46;;;;;;;6.85;4.10;;;;;;;;;;5065558;28;20493;-66
2022/06/06 03:57:16;;;;;;;7.93;3.80;;;;;;;;;;5067068;28;20032;-66
2022/06/06 03:59:44;;;;;;;6.43;3.63;;;;;;;;;;5063522;28;20242;-66
2022/06/06 04:02:15;;;;;;;7.95;3.78;;;;;;;;;;5066544;28;20032;-66
2022/06/06 04:04:41;;;;;;;8.70;3.80;;;;;;;;;;5061778;28;20064;-66
2022/06/06 04:07:06;;;;;;;8.25;3.85;;;;;;;;;;5066114;28;20056;-66
2022/06/06 04:09:34;;;;;;;6.90;3.97;;;;;;;;;;5067194;28;20406;-66
2022/06/06 04:12:42;;;;;;;8.80;3.80;;;;;;;;;;5068829;28;20020;-66
2022/06/06 04:15:27;;;;;;;7.43;3.70;;;;;;;;;;5052235;28;20361;-66
2022/06/06 04:18:14;;;;;;;7.30;3.83;;;;;;;;;;5060363;28;20123;-66
2022/06/06 04:20:54;;;;;;;7.85;4.38;;;;;;;;;;5062528;28;20055;-66
2022/06/06 04:23:57;;;;;;;8.55;4.38;;;;;;;;;;5063235;28;20063;-66
2022/06/06 04:26:41;;;;;;;7.40;4.65;;;;;;;;;;5065028;28;20063;-66
2022/06/06 04:29:31;;;;;;;8.20;4.55;;;;;;;;;;5066135;28;20068;-66
2022/06/06 04:32:20;;;;;;;9.05;4.65;;;;;;;;;;5060799;28;20720;-66
2022/06/06 04:34:55;;;;;;;8.65;4.38;;;;;;;;;;5061288;28;20029;-66
2022/06/06 04:37:43;;;;;;;6.72;4.13;;;;;;;;;;5065462;28;20443;-66
2022/06/06 04:40:24;;;;;;;7.95;4.13;;;;;;;;;;5065036;28;20414;-66
2022/06/06 04:43:03;;;;;;;8.20;4.70;;;;;;;;;;5064830;28;20040;-66
2022/06/06 04:45:51;;;;;;;8.80;4.68;;;;;;;;;;5066467;28;20032;-66
2022/06/06 04:48:20;;;;;;;8.77;5.07;;;;;;;;;;5058110;28;20049;-66
2022/06/06 04:50:46;;;;;;;9.13;5.03;;;;;;;;;;5061676;28;20032;-66
2022/06/06 04:53:16;;;;;;;8.35;4.68;;;;;;;;;;5067181;28;20387;-66
2022/06/06 04:55:44;;;;;;;9.00;4.93;;;;;;;;;;5066039;28;20131;-66
2022/06/06 04:58:11;;;;;;;8.65;4.78;;;;;;;;;;5063863;28;20137;-66
2022/06/06 05:00:38;;;;;;;12.30;5.30;;;;;;;;;;5066309;28;20628;-66
2022/06/06 05:03:04;;;;;;;7.75;4.43;;;;;;;;;;5063547;28;20146;-66
2022/06/06 05:05:47;;;;;;;7.25;4.40;;;;;;;;;;5086655;28;20040;-66
2022/06/06 05:08:30;;;;;;;7.43;4.55;;;;;;;;;;5083338;28;20556;-66
2022/06/06 05:10:59;;;;;;;;;;;;;;;;;;5080568;28;20501;-66
2022/06/06 05:13:30;;;;;;;8.55;4.60;;;;;;;;;;5082755;28;19915;-66
2022/06/06 05:16:14;;;;;;;8.68;5.10;;;;;;;;;;5086229;28;20046;-66
2022/06/06 05:18:42;;;;;;;8.80;5.00;;;;;;;;;;5083265;28;20032;-66
2022/06/06 05:21:11;;;;;;;8.90;4.68;;;;;;;;;;5083943;28;20048;-66
2022/06/06 05:23:45;;;;;;;9.27;5.00;;;;;;;;;;5077110;28;20055;-66
2022/06/06 05:26:19;;;;;;;6.10;4.18;;;;;;;;;;5084268;28;20101;-66
2022/06/06 05:28:57;;;;;;;8.20;4.72;;;;;;;;;;5079062;28;20139;-66
2022/06/06 05:31:41;;;;;;;7.40;4.55;;;;;;;;;;5083953;28;20039;-66
2022/06/06 05:34:10;;;;;;;;;;;;;;;;;;5083053;28;20040;-66
2022/06/06 05:37:03;;;;;;;7.80;4.35;;;;;;;;;;5081961;28;19923;-66
2022/06/06 05:39:31;;;;;;;8.40;4.33;;;;;;;;;;5083303;28;20397;-66
2022/06/06 05:42:06;;;;;;;6.43;4.50;;;;;;;;;;5082845;28;20455;-66
2022/06/06 05:44:41;;;;;;;9.02;4.72;;;;;;;;;;5080903;28;20032;-66
2022/06/06 05:47:25;;;;;;;7.35;4.35;;;;;;;;;;5085538;28;20044;-66
2022/06/06 05:50:15;;;;;;;7.85;4.78;;;;;;;;;;5082510;28;20051;-66
2022/06/06 05:53:19;;;;;;;8.98;4.40;;;;;;;;;;5077323;28;20067;-66
2022/06/06 05:56:05;;;;;;;12.27;5.40;;;;;;;;;;5063024;28;20040;-66
2022/06/06 05:58:46;;;;;;;9.25;5.10;;;;;;;;;;5084569;28;20029;-66
2022/06/06 06:01:53;;;;;;;10.10;5.13;;;;;;;;;;5076602;28;20036;-66
2022/06/06 06:04:21;;;;;;;11.93;6.57;;;;;;;;;;5087043;28;20028;-66
2022/06/06 06:07:27;;;;;;;10.98;5.78;;;;;;;;;;5087676;28;20522;-66
2022/06/06 06:10:12;;;;;;;12.70;6.20;;;;;;;;;;5084068;28;20039;-66
2022/06/06 06:13:06;;;;;;;9.90;6.55;;;;;;;;;;5084823;28;20054;-66
2022/06/06 06:15:38;;;;;;;12.07;6.07;;;;;;;;;;5071466;28;20413;-66
2022/06/06 06:18:30;;;;;;;10.77;6.55;;;;;;;;;;5089342;28;20027;-66
2022/06/06 06:21:04;;;;;;;16.55;6.70;;;;;;;;;;5083551;28;20056;-66
2022/06/06 06:23:33;;;;;;;12.18;7.22;;;;;;;;;;5088385;28;20119;-66
2022/06/06 06:26:05;;;;;;;12.88;6.78;;;;;;;;;;5081127;28;20044;-66
2022/06/06 06:28:33;;;;;;;12.63;6.97;;;;;;;;;;5080467;28;20090;-66
2022/06/06 06:31:26;;;;;;;12.90;6.95;;;;;;;;;;5079835;28;20048;-66
2022/06/06 06:34:03;;;;;;;13.88;6.97;;;;;;;;;;5084040;28;20520;-66
2022/06/06 06:36:42;;;;;;;14.25;6.43;;;;;;;;;;5082505;28;20643;-66
2022/06/06 06:39:26;;;;;;;11.38;6.45;;;;;;;;;;5081677;28;20068;-66
2022/06/06 06:42:02;;;;;;;14.60;7.20;;;;;;;;;;5078951;28;20032;-66
2022/06/06 06:44:35;;;;;;;13.75;5.97;;;;;;;;;;5086125;28;20035;-66
2022/06/06 06:47:10;;;;;;;9.85;5.05;;;;;;;;;;5087989;28;20039;-66
2022/06/06 06:49:42;;;;;;;12.05;5.50;;;;;;;;;;5086933;28;20032;-66
2022/06/06 06:52:19;;;;;;;8.32;5.18;;;;;;;;;;5073557;28;20122;-66
2022/06/06 06:55:05;;;;;;;15.30;4.47;;;;;;;;;;5080541;28;20097;-66
2022/06/06 06:58:08;;;;;;;5.25;3.17;;;;;;;;;;5082492;28;20447;-66
2022/06/06 07:00:55;;;;;;;12.88;4.07;;;;;;;;;;5081530;28;20036;-66
2022/06/06 07:08:32;;;;;;;6.00;3.17;;;;;;;;;;5085576;28;20042;-66
2022/06/06 07:09:50;;;;;;;5.22;2.80;;;;;;;;;;5076738;28;20044;-66
2022/06/06 07:12:44;;;;;;;4.00;2.72;;;;;;;;;;5076999;28;20032;-66
2022/06/06 07:15:28;;;;;;;;;;;;;;;;;;5080620;28;20507;-66
2022/06/06 07:17:59;;;;;;;4.68;2.05;;;;;;;;;;5083550;28;19938;-66
2022/06/06 07:20:26;;;;;;;6.53;2.60;;;;;;;;;;5086132;28;20033;-66
2022/06/06 07:23:05;;;;;;;5.13;2.30;;;;;;;;;;5083363;28;20167;-66
2022/06/06 07:25:41;;;;;;;3.75;2.50;;;;;;;;;;5079806;28;20750;-68
2022/06/06 07:28:09;;;;;;;4.50;2.65;;;;;;;;;;5073180;28;20036;-67
2022/06/06 07:30:43;;;;;;;2.60;2.00;;;;;;;;;;5073998;28;20044;-67
2022/06/06 07:33:11;;;;;;;;;;;;;;;;;;5087476;28;20027;-68
2022/06/06 07:35:47;;;;;;;4.88;2.30;;;;;;;;;;5082117;28;20742;-68
2022/06/06 07:38:44;;;;;;;3.97;2.80;;;;;;;;;;5082980;28;20039;-68
2022/06/06 07:41:25;;;;;;;7.57;2.30;;;;;;;;;;5079188;28;20043;-68
2022/06/06 07:43:55;;;;;;;4.05;2.70;;;;;;;;;;5082210;28;20082;-67
2022/06/06 07:46:43;;;;;;;5.15;2.78;;;;;;;;;;5071014;28;20040;-68
2022/06/06 07:49:21;;;;;;;6.15;2.90;;;;;;;;;;5079306;28;20051;-68
2022/06/06 07:52:13;;;;;;;5.70;3.10;;;;;;;;;;5079820;28;20331;-68
2022/06/06 07:54:53;;;;;;;4.25;2.88;;;;;;;;;;5042696;28;20042;-68
2022/06/06 07:57:37;;;;;;;7.97;2.80;;;;;;;;;;5078339;28;20032;-68
2022/06/06 08:00:06;;;;;;;4.15;2.50;;;;;;;;;;5082459;28;20015;-68
2022/06/06 08:03:09;;;;;;;3.58;2.47;;;;;;;;;;5079198;28;20051;-69
2022/06/06 08:06:02;;;;;;;5.25;2.70;;;;;;;;;;5085698;28;20054;-69
2022/06/06 08:08:54;;;;;;;4.65;2.38;;;;;;;;;;5078065;28;20041;-69
2022/06/06 08:11:36;;;;;;;5.03;2.30;;;;;;;;;;5084199;28;20040;-69
2022/06/06 08:14:04;;;;;;;3.30;2.20;;;;;;;;;;5084947;28;20080;-68
2022/06/06 08:16:57;;;;;;;2.88;2.47;;;;;;;;;;5082555;28;20454;-69
2022/06/06 08:19:41;;;;;;;2.97;2.10;;;;;;;;;;5073790;28;20028;-69
2022/06/06 08:22:09;;;;;;;3.08;2.65;;;;;;;;;;5077627;28;20044;-69
2022/06/06 08:24:41;;;;;;;4.05;2.20;;;;;;;;;;5084647;28;20044;-69
2022/06/06 08:27:10;;;;;;;3.78;2.22;;;;;;;;;;5078784;28;20091;-68
2022/06/06 08:29:39;;;;;;;4.43;2.10;;;;;;;;;;5084244;28;20081;-69
2022/06/06 08:32:05;;;;;;;5.57;2.03;;;;;;;;;;5075638;28;20425;-68
2022/06/06 08:34:34;;;;;;;3.00;2.20;;;;;;;;;;5079432;28;20051;-69
2022/06/06 08:37:24;;;;;;;4.50;2.20;;;;;;;;;;5085776;28;20047;-69
2022/06/06 08:40:07;;;;;;;2.60;1.95;;;;;;;;;;5072359;28;20043;-68
2022/06/06 08:42:54;;;;;;;3.97;2.13;;;;;;;;;;5076279;28;20032;-69
2022/06/06 08:45:23;;;;;;;2.13;1.90;;;;;;;;;;5080271;28;20043;-69
2022/06/06 08:47:54;;;;;;;2.80;2.10;;;;;;;;;;5083639;28;20054;-68
2022/06/06 08:50:46;;;;;;;8.10;2.20;;;;;;;;;;5085123;28;20602;-69
2022/06/06 08:53:27;;;;;;;3.88;1.60;;;;;;;;;;5086694;28;20032;-69
2022/06/06 08:56:08;;;;;;;4.95;1.80;;;;;;;;;;5086072;28;20040;-68
2022/06/06 08:59:12;;;;;;;3.13;1.70;;;;;;;;;;5077673;28;20169;-68
2022/06/06 09:01:49;;;;;;;2.58;1.95;;;;;;;;;;5078086;28;20043;-67
2022/06/06 09:04:32;;;;;;;3.00;1.50;;;;;;;;;;5085639;28;20036;-68
2022/06/06 09:07:01;;;;;;;;;;;;;;;;;;5081838;28;20083;-68
2022/06/06 09:09:45;;;;;;;1.80;1.40;;;;;;;;;;5080799;28;19930;-68
2022/06/06 09:12:44;;;;;;;3.38;1.42;;;;;;;;;;5079169;28;20027;-68
2022/06/06 09:15:24;;;;;;;1.92;1.50;;;;;;;;;;5077838;28;20024;-68
2022/06/06 09:18:01;;;;;;;2.33;1.80;;;;;;;;;;5081227;28;20051;-67
2022/06/06 09:20:49;;;;;;;3.08;1.60;;;;;;;;;;5075809;28;20047;-67
2022/06/06 09:23:30;;;;;;;1.77;1.40;;;;;;;;;;5075698;28;20051;-67
2022/06/06 09:26:16;;;;;;;3.20;1.70;;;;;;;;;;5077198;28;20040;-68
2022/06/06 09:29:18;;;;;;;1.70;1.60;;;;;;;;;;5080487;28;20106;-67
2022/06/06 09:32:20;;;;;;;2.45;1.70;;;;;;;;;;5077599;28;20123;-67
2022/06/06 09:34:55;;;;;;;1.75;1.60;;;;;;;;;;5085863;28;20074;-67
2022/06/06 09:37:33;;;;;;;3.55;1.63;;;;;;;;;;5083762;28;20521;-67
2022/06/06 09:40:13;;;;;;;3.40;2.33;;;;;;;;;;5083263;28;20051;-67
2022/06/06 09:43:14;;;;;;;3.33;1.77;;;;;;;;;;5084698;28;20464;-67
2022/06/06 09:45:50;;;;;;;3.67;1.90;;;;;;;;;;5051735;28;20036;-68
2022/06/06 09:48:16;;;;;;;4.85;1.80;;;;;;;;;;5073674;28;20034;-68
2022/06/06 09:50:56;;;;;;;3.05;1.83;;;;;;;;;;5081277;28;20044;-68
2022/06/06 10:00:27;;;;;;;1.67;1.40;;;;;;;;;;5079259;28;20180;-69
2022/06/06 10:03:29;;;;;;;1.73;1.63;;;;;;;;;;5023094;28;20132;-70
2022/06/06 10:06:27;;;;;;;3.63;1.50;;;;;;;;;;5086061;28;20040;-69
2022/06/06 10:09:09;;;;;;;4.10;1.70;;;;;;;;;;5000134;28;20057;-69
2022/06/06 10:11:43;;;;;;;2.22;1.50;;;;;;;;;;5065313;28;20056;-69
2022/06/06 10:14:19;;;;;;;2.97;1.55;;;;;;;;;;5070905;28;20044;-69
2022/06/06 10:17:06;;;;;;;5.55;1.73;;;;;;;;;;5074955;28;20048;-69
2022/06/06 10:20:09;;;;;;;4.05;1.40;;;;;;;;;;5081801;28;20042;-69
2022/06/06 10:22:37;;;;;;;2.70;1.50;;;;;;;;;;5075876;28;20039;-69
2022/06/06 10:25:18;;;;;;;1.58;1.48;;;;;;;;;;5083935;28;20119;-69
2022/06/06 10:27:50;;;;;;;2.00;1.30;;;;;;;;;;5081336;28;20048;-69
2022/06/06 10:30:23;;;;;;;1.65;1.20;;;;;;;;;;5082100;28;20091;-68
2022/06/06 10:33:16;;;;;;;3.88;1.63;;;;;;;;;;5081882;28;20473;-69
2022/06/06 10:36:04;;;;;;;3.05;1.30;;;;;;;;;;5073629;28;20051;-68
2022/06/06 10:39:08;;;;;;;1.40;1.20;;;;;;;;;;5074121;28;20544;-69
2022/06/06 10:41:57;;;;;;;2.50;1.50;;;;;;;;;;5078260;28;20055;-69
2022/06/06 10:44:39;;;;;;;3.88;1.40;;;;;;;;;;5079010;28;20524;-68
2022/06/06 10:47:16;;;;;;;2.60;1.10;;;;;;;;;;5078600;28;20115;-69
2022/06/06 10:49:54;;;;;;;1.98;1.48;;;;;;;;;;5077516;28;20040;-68
2022/06/06 10:52:41;;;;;;;4.45;1.50;;;;;;;;;;5077648;28;20036;-69
2022/06/06 10:55:25;;;;;;;1.85;1.40;;;;;;;;;;5077969;28;20127;-69
2022/06/06 10:58:31;;;;;;;3.55;1.40;;;;;;;;;;5084284;28;20483;-69
2022/06/06 11:01:29;;;;;;;4.07;1.75;;;;;;;;;;5084915;28;20032;-68
2022/06/06 11:04:37;;;;;;;4.18;1.88;;;;;;;;;;5082505;28;20047;-69
2022/06/06 11:07:23;;;;;;;3.63;1.48;;;;;;;;;;5083831;28;20039;-68
2022/06/06 11:10:03;;;;;;;18.38;2.10;;;;;;;;;;5051325;28;20135;-69
2022/06/06 11:13:00;;;;;;;4.00;1.42;;;;;;;;;;5081525;28;20028;-70
2022/06/06 11:15:48;;;;;;;1.98;1.30;;;;;;;;;;5082232;28;20040;-70
2022/06/06 11:18:48;;;;;;;2.47;1.50;;;;;;;;;;5052356;28;20044;-70
2022/06/06 11:21:39;;;;;;;2.10;1.40;;;;;;;;;;5080347;28;20118;-70
2022/06/06 11:24:22;;;;;;;2.05;1.50;;;;;;;;;;5082206;28;20077;-70
2022/06/06 11:27:18;;;;;;;7.90;1.40;;;;;;;;;;5078551;28;20931;-71
2022/06/06 11:30:02;;;;;;;3.03;1.63;;;;;;;;;;5082527;28;20070;-70
2022/06/06 11:32:55;;;;;;;3.35;1.58;;;;;;;;;;5082102;28;20104;-70
2022/06/06 11:35:36;;;;;;;3.40;1.20;;;;;;;;;;5079821;28;20492;-70
2022/06/06 11:38:25;;;;;;;3.17;1.50;;;;;;;;;;5081826;28;20107;-70
2022/06/06 11:41:28;;;;;;;2.00;1.80;;;;;;;;;;5046912;28;20043;-71
2022/06/06 11:44:08;;;;;;;2.13;1.35;;;;;;;;;;5079600;28;20028;-71
2022/06/06 11:47:00;;;;;;;1.73;1.30;;;;;;;;;;5079454;28;20028;-70
2022/06/06 11:49:52;;;;;;;3.20;1.50;;;;;;;;;;5086862;28;20068;-71
2022/06/06 11:52:50;;;;;;;2.60;1.40;;;;;;;;;;5081917;28;20043;-71
2022/06/06 11:55:47;;;;;;;3.47;1.50;;;;;;;;;;5060296;28;20520;-71
2022/06/06 11:58:45;;;;;;;2.03;1.45;;;;;;;;;;5084337;28;20096;-71
2022/06/06 12:01:26;;;;;;;3.78;1.60;;;;;;;;;;5078536;28;20032;-70
2022/06/06 12:04:22;;;;;;;3.67;1.40;;;;;;;;;;5084589;28;20044;-71
2022/06/06 12:07:22;;;;;;;1.80;1.30;;;;;;;;;;5084410;28;20127;-71
2022/06/06 12:09:53;;;;;;;2.45;1.40;;;;;;;;;;5081319;28;20037;-71
2022/06/06 12:12:56;;;;;;;3.28;1.27;;;;;;;;;;5084008;28;20412;-71
2022/06/06 12:15:49;;;;;;;2.30;1.40;;;;;;;;;;5082425;28;20065;-70
2022/06/06 12:18:33;;;;;;;1.55;1.35;;;;;;;;;;5079692;28;20016;-70
2022/06/06 12:21:01;;;;;;;3.53;1.60;;;;;;;;;;5079950;28;20044;-70
2022/06/06 12:24:00;;;;;;;4.20;1.40;;;;;;;;;;5081017;28;20596;-70
2022/06/06 12:26:39;;;;;;;2.50;1.30;;;;;;;;;;5080233;28;20035;-70
2022/06/06 12:29:04;;;;;;;3.75;1.30;;;;;;;;;;5082691;28;20028;-71
2022/06/06 12:32:00;;;;;;;2.08;1.33;;;;;;;;;;5080931;28;20040;-70
2022/06/06 12:34:34;;;;;;;2.05;1.15;;;;;;;;;;5046670;28;20105;-70
2022/06/06 12:37:15;;;;;;;4.40;1.55;;;;;;;;;;5082795;28;20068;-70
2022/06/06 12:39:41;;;;;;;2.50;1.40;;;;;;;;;;5081003;28;20040;-71
2022/06/06 12:42:23;;;;;;;4.38;1.38;;;;;;;;;;5079437;28;20031;-71
2022/06/06 12:45:14;;;;;;;3.45;1.10;;;;;;;;;;5080082;28;20032;-70
2022/06/06 12:47:45;;;;;;;2.15;1.25;;;;;;;;;;5081961;28;20056;-71
2022/06/06 12:50:24;;;;;;;2.30;1.15;;;;;;;;;;5085883;28;20039;-70
2022/06/06 12:53:11;;;;;;;2.17;1.23;;;;;;;;;;5087279;28;20036;-70
2022/06/06 12:56:17;;;;;;;2.38;1.38;;;;;;;;;;5079745;28;20121;-71
2022/06/06 12:58:49;;;;;;;2.30;1.25;;;;;;;;;;5084802;28;20040;-70
2022/06/06 13:01:39;;;;;;;2.08;1.40;;;;;;;;;;5085479;28;20032;-70
2022/06/06 13:04:28;;;;;;;7.72;1.20;;;;;;;;;;5067879;28;20036;-70
2022/06/06 13:07:16;;;;;;;2.03;1.50;;;;;;;;;;5065354;28;20036;-70
2022/06/06 13:10:13;;;;;;;3.80;1.30;;;;;;;;;;5085607;28;20177;-71
2022/06/06 13:12:48;;;;;;;1.35;1.23;;;;;;;;;;5029412;28;20053;-70
2022/06/06 13:15:32;;;;;;;4.78;1.52;;;;;;;;;;5071055;28;20077;-67
2022/06/06 13:18:22;;;;;;;2.05;1.27;;;;;;;;;;5081346;28;20025;-67
2022/06/06 13:21:15;;;;;;;2.78;1.23;;;;;;;;;;5080352;28;20055;-66
2022/06/06 13:23:54;;;;;;;2.55;1.23;;;;;;;;;;5084426;28;20032;-67
2022/06/06 13:26:46;;;;;;;3.00;1.40;;;;;;;;;;5079480;28;20597;-67
2022/06/06 13:29:33;;;;;;;2.47;1.10;;;;;;;;;;5082302;28;20086;-67
2022/06/06 13:32:04;;;;;;;1.30;1.20;;;;;;;;;;5080461;28;20402;-67
2022/06/06 13:34:29;;;;;;;3.55;1.52;;;;;;;;;;5075769;28;20056;-67
2022/06/06 13:37:27;;;;;;;3.55;1.20;;;;;;;;;;5082171;28;20523;-67
2022/06/06 13:40:23;;;;;;;2.28;1.10;;;;;;;;;;5041305;28;20036;-66
2022/06/06 13:43:01;;;;;;;3.45;1.30;;;;;;;;;;5078238;28;20036;-66
2022/06/06 13:45:30;;;;;;;2.55;1.10;;;;;;;;;;5078773;28;20040;-65
2022/06/06 13:47:59;;;;;;;2.20;1.27;;;;;;;;;;5086319;28;20051;-67
2022/06/06 13:50:56;;;;;;;3.75;1.50;;;;;;;;;;5086979;28;20036;-66
2022/06/06 13:53:25;;;;;;;2.20;1.45;;;;;;;;;;5081157;28;20040;-66
2022/06/06 13:56:19;;;;;;;9.60;1.90;;;;;;;;;;5074277;28;20037;-66
2022/06/06 13:58:57;;;;;;;2.15;1.38;;;;;;;;;;5079868;28;20052;-67
2022/06/06 14:01:50;;;;;;;2.28;1.30;;;;;;;;;;5077798;28;20035;-66
2022/06/06 14:04:34;;;;;;;2.83;1.27;;;;;;;;;;5080566;28;20040;-67
2022/06/06 14:07:21;;;;;;;1.33;1.20;;;;;;;;;;5078736;28;20036;-66
2022/06/06 14:09:47;;;;;;;1.75;1.20;;;;;;;;;;5080386;28;20047;-67
2022/06/06 14:12:31;;;;;;;5.10;1.50;;;;;;;;;;5079940;28;20028;-66
2022/06/06 14:15:02;;;;;;;1.50;1.30;;;;;;;;;;5084277;28;20022;-66
2022/06/06 14:17:30;;;;;;;2.08;1.42;;;;;;;;;;5073842;28;20060;-66
2022/06/06 14:20:07;;;;;;;2.10;1.25;;;;;;;;;;5079769;28;20070;-66
2022/06/06 14:22:39;;;;;;;4.60;1.58;;;;;;;;;;5077933;28;20055;-66
2022/06/06 14:25:08;;;;;;;2.85;1.63;;;;;;;;;;5079743;28;20540;-66
2022/06/06 14:27:35;;;;;;;3.45;1.20;;;;;;;;;;5080001;28;20150;-66
2022/06/06 14:30:08;;;;;;;2.67;1.40;;;;;;;;;;5079188;28;20111;-66
2022/06/06 14:32:55;;;;;;;2.40;1.42;;;;;;;;;;5077247;28;20028;-66
2022/06/06 14:35:50;;;;;;;1.45;1.35;;;;;;;;;;5079035;28;20444;-66
2022/06/06 14:38:20;;;;;;;2.35;1.30;;;;;;;;;;5071151;28;20032;-66
2022/06/06 14:40:50;;;;;;;2.40;1.40;;;;;;;;;;5080235;28;20032;-65
2022/06/06 14:43:16;;;;;;;3.70;1.35;;;;;;;;;;5082361;28;20089;-66
2022/06/06 14:45:43;;;;;;;2.72;1.35;;;;;;;;;;5080704;28;20043;-66
2022/06/06 14:48:30;;;;;;;4.03;1.55;;;;;;;;;;5085066;28;20031;-66
2022/06/06 14:50:58;;;;;;;1.38;1.15;;;;;;;;;;5080880;28;20489;-66
2022/06/06 14:53:30;;;;;;;3.33;1.45;;;;;;;;;;5078615;28;20032;-66
2022/06/06 14:56:00;;;;;;;2.30;1.42;;;;;;;;;;5083195;28;20502;-66
2022/06/06 14:58:29;;;;;;;3.30;1.30;;;;;;;;;;5081236;28;20551;-66
2022/06/06 15:00:58;;;;;;;3.05;1.60;;;;;;;;;;5083552;28;20040;-66
2022/06/06 15:03:45;;;;;;;3.50;1.35;;;;;;;;;;5081404;28;20508;-67
2022/06/06 15:06:48;;;;;;;1.98;1.40;;;;;;;;;;5080814;28;20019;-66
2022/06/06 15:09:27;;;;;;;2.55;1.30;;;;;;;;;;5081084;28;20024;-66
2022/06/06 15:11:52;;;;;;;4.32;1.40;;;;;;;;;;5083255;28;20412;-66
2022/06/06 15:14:28;;;;;;;2.55;1.20;;;;;;;;;;5084123;28;20539;-66
2022/06/06 15:16:54;;;;;;;1.65;1.40;;;;;;;;;;5082711;28;20130;-67
2022/06/06 15:19:25;;;;;;;1.55;1.38;;;;;;;;;;5080675;28;20044;-67
2022/06/06 15:21:52;;;;;;;1.50;1.20;;;;;;;;;;5077501;28;20036;-66
2022/06/06 15:24:27;;;;;;;4.15;1.55;;;;;;;;;;5080335;28;20020;-66
2022/06/06 15:26:52;;;;;;;4.30;1.50;;;;;;;;;;5082142;28;20031;-66
2022/06/06 15:29:44;;;;;;;2.50;1.50;;;;;;;;;;5080126;28;20456;-66
2022/06/06 15:32:20;;;;;;;3.13;1.70;;;;;;;;;;5076069;28;20122;-67
2022/06/06 15:35:00;;;;;;;4.45;1.42;;;;;;;;;;5079228;28;20048;-66
2022/06/06 15:37:43;;;;;;;3.22;1.38;;;;;;;;;;5078304;28;20455;-66
2022/06/06 15:40:19;;;;;;;2.58;1.45;;;;;;;;;;5077429;28;20039;-66
2022/06/06 15:43:34;;;;;;;1.83;1.30;;;;;;;;;;5080652;28;21182;-66
2022/06/06 15:46:19;;;;;;;2.70;1.40;;;;;;;;;;5081800;28;20043;-66
2022/06/06 15:48:56;;;;;;;7.40;1.48;;;;;;;;;;5077988;28;20516;-66
2022/06/06 15:51:44;;;;;;;4.78;1.17;;;;;;;;;;5081634;28;20500;-66
2022/06/06 15:54:37;;;;;;;2.00;1.20;;;;;;;;;;5082410;28;20036;-67
2022/06/06 15:57:21;;;;;;;4.03;1.40;;;;;;;;;;5083317;28;20020;-66
2022/06/06 15:59:55;;;;;;;5.32;1.30;;;;;;;;;;5080068;28;20068;-66
2022/06/06 16:02:20;;;;;;;3.08;1.25;;;;;;;;;;5083798;28;20131;-66
2022/06/06 16:05:11;;;;;;;1.63;1.27;;;;;;;;;;5080521;28;20123;-66
2022/06/06 16:08:04;;;;;;;2.65;1.40;;;;;;;;;;5080028;28;20039;-66
2022/06/06 16:11:00;;;;;;;4.32;1.83;;;;;;;;;;5078907;28;20524;-67
2022/06/06 16:13:28;;;;;;;2.60;1.23;;;;;;;;;;5080219;28;20040;-66
2022/06/06 16:16:11;;;;;;;3.55;1.70;;;;;;;;;;5078454;28;20047;-66